Time;durP1;ratioP1;P1;durP2;ratioP2;P2;SDS_P1;SDS_P2;PMS_P1;PMS_P2;Temp;Humidity;BMP_temperature;BMP_pressure;BME280_temperature;BME280_humidity;BME280_pressure;Samples;Min_cycle;Max_cycle;Signal;HPM_P1;HPM_P2
2021/07/02 00:01:43;;;;;;;11.10;7.68;;;;;;;15.56;79.44;100542.50;5052004;28;20047;-60
2021/07/02 00:04:09;;;;;;;14.27;8.23;;;;;;;15.54;79.94;100539.03;5034160;28;20487;-60
2021/07/02 00:06:36;;;;;;;13.82;9.13;;;;;;;15.52;79.59;100535.63;5040827;28;20055;-60
2021/07/02 00:09:02;;;;;;;14.05;8.13;;;;;;;15.48;79.49;100525.22;5040711;28;20547;-60
2021/07/02 00:11:29;;;;;;;14.13;9.27;;;;;;;15.47;79.88;100535.03;5048632;28;20045;-62
2021/07/02 00:13:56;;;;;;;14.07;9.05;;;;;;;15.44;80.14;100530.75;5046199;28;20045;-59
2021/07/02 00:16:22;;;;;;;13.30;8.82;;;;;;;15.39;80.63;100532.91;5052502;28;20062;-60
2021/07/02 00:18:49;;;;;;;12.38;8.40;;;;;;;15.39;81.15;100524.03;5047625;28;20135;-64
2021/07/02 00:21:16;;;;;;;16.95;9.48;;;;;;;15.39;81.13;100527.56;5039812;28;20041;-61
2021/07/02 00:23:42;;;;;;;13.68;9.43;;;;;;;15.36;80.98;100522.41;5047485;28;20053;-62
2021/07/02 00:26:09;;;;;;;12.18;8.82;;;;;;;15.34;81.25;100523.47;5052552;28;20041;-60
2021/07/02 00:28:37;;;;;;;13.52;9.32;;;;;;;15.34;81.45;100523.47;5044946;28;20059;-58
2021/07/02 00:31:03;;;;;;;15.68;9.18;;;;;;;15.34;81.64;100528.78;5042581;28;20051;-60
2021/07/02 00:33:30;;;;;;;15.00;8.77;;;;;;;15.33;81.84;100525.28;5035703;28;20075;-60
2021/07/02 00:35:57;;;;;;;14.05;8.60;;;;;;;15.33;81.91;100521.75;5037735;28;20041;-61
2021/07/02 00:38:23;;;;;;;15.25;9.55;;;;;;;15.30;81.46;100519.28;5043819;28;20503;-61
2021/07/02 00:40:50;;;;;;;16.20;9.63;;;;;;;15.28;81.57;100519.38;5046409;28;20507;-61
2021/07/02 00:43:16;;;;;;;15.13;10.13;;;;;;;15.25;82.25;100516.06;5052708;28;20037;-62
2021/07/02 00:45:43;;;;;;;16.67;10.13;;;;;;;15.23;82.50;100523.31;5044458;28;20051;-60
2021/07/02 00:48:09;;;;;;;15.45;9.00;;;;;;;15.20;82.12;100521.69;5049944;28;20072;-59
2021/07/02 00:50:36;;;;;;;15.63;10.45;;;;;;;15.21;82.96;100510.06;5046042;28;20055;-60
2021/07/02 00:53:04;;;;;;;14.88;10.43;;;;;;;15.17;83.16;100505.00;5043929;28;20056;-61
2021/07/02 00:55:32;;;;;;;14.60;9.98;;;;;;;15.13;82.45;100507.00;5044404;28;20049;-60
2021/07/02 00:57:58;;;;;;;14.95;10.02;;;;;;;15.14;83.28;100507.88;5051487;28;20052;-60
2021/07/02 01:00:25;;;;;;;16.13;9.82;;;;;;;15.15;82.79;100513.09;5044815;28;20114;-60
2021/07/02 01:02:51;;;;;;;16.23;10.35;;;;;;;15.12;83.03;100505.28;5049281;28;20059;-60
2021/07/02 01:05:18;;;;;;;17.00;10.80;;;;;;;15.12;83.32;100502.63;5051631;28;20518;-60
2021/07/02 01:07:44;;;;;;;14.55;10.05;;;;;;;15.16;83.80;100505.97;5041361;28;20050;-61
2021/07/02 01:10:16;;;;;;;14.20;10.40;;;;;;;15.19;83.21;100503.09;5050301;28;20053;-60
2021/07/02 01:12:43;;;;;;;14.60;9.90;;;;;;;15.18;82.93;100506.72;5034621;28;20059;-61
2021/07/02 01:15:21;;;;;;;17.15;10.80;;;;;;;15.19;83.09;100503.97;5036597;28;20049;-58
2021/07/02 01:17:48;;;;;;;15.75;10.35;;;;;;;15.18;82.74;100499.59;5039075;28;20057;-61
2021/07/02 01:20:15;;;;;;;14.35;10.27;;;;;;;15.19;83.29;100495.09;5049112;28;20041;-60
2021/07/02 01:22:42;;;;;;;13.07;9.27;;;;;;;15.19;82.95;100493.28;5050993;28;20071;-62
2021/07/02 01:25:09;;;;;;;15.18;9.95;;;;;;;15.20;82.86;100499.50;5050917;28;20131;-60
2021/07/02 01:27:36;;;;;;;14.20;9.57;;;;;;;15.20;82.47;100494.16;5046634;28;20167;-62
2021/07/02 01:30:06;;;;;;;17.38;10.65;;;;;;;15.19;82.88;100501.28;5043815;28;20102;-61
2021/07/02 01:32:33;;;;;;;13.55;10.05;;;;;;;15.20;82.95;100494.16;5048884;28;20104;-60
2021/07/02 01:35:00;;;;;;;14.27;9.93;;;;;;;15.20;82.48;100494.16;5059829;28;20049;-61
2021/07/02 01:37:26;;;;;;;13.18;10.10;;;;;;;15.22;82.30;100500.25;5053816;28;20099;-60
2021/07/02 01:39:53;;;;;;;15.32;10.60;;;;;;;15.22;82.25;100495.78;5041577;28;20417;-61
2021/07/02 01:42:19;;;;;;;16.85;11.38;;;;;;;15.23;82.11;100500.16;5035324;28;20050;-59
2021/07/02 01:44:46;;;;;;;15.90;11.07;;;;;;;15.20;81.95;100495.00;5041382;28;20444;-60
2021/07/02 01:47:12;;;;;;;16.27;11.40;;;;;;;15.20;81.63;100497.69;5044935;28;20055;-60
2021/07/02 01:49:39;;;;;;;15.85;11.30;;;;;;;15.16;80.88;100496.16;5049456;28;20061;-61
2021/07/02 01:52:05;;;;;;;15.65;11.18;;;;;;;15.15;80.93;100489.09;5047578;28;20049;-59
2021/07/02 01:54:32;;;;;;;15.30;11.10;;;;;;;15.16;80.90;100488.16;5049463;28;21998;-61
2021/07/02 01:57:04;;;;;;;18.00;11.25;;;;;;;15.18;81.01;100480.91;5051901;28;20044;-61
2021/07/02 01:59:31;;;;;;;20.38;11.18;;;;;;;15.19;80.37;100481.75;5046093;28;20061;-60
2021/07/02 02:01:57;;;;;;;16.02;11.10;;;;;;;15.17;80.14;100479.19;5050752;28;20071;-61
2021/07/02 02:04:23;;;;;;;18.00;11.13;;;;;;;15.17;80.18;100483.66;5049681;28;20054;-61
2021/07/02 02:06:50;;;;;;;14.88;10.55;;;;;;;15.17;79.93;100481.00;5048053;28;20064;-60
2021/07/02 02:09:17;;;;;;;14.57;10.88;;;;;;;15.14;80.05;100476.72;5044477;28;20071;-59
2021/07/02 02:11:43;;;;;;;16.60;11.20;;;;;;;15.15;80.03;100475.75;5055268;28;20066;-61
2021/07/02 02:14:10;;;;;;;14.98;11.30;;;;;;;15.17;80.11;100473.00;5048269;28;20045;-61
2021/07/02 02:16:38;;;;;;;15.30;10.90;;;;;;;15.14;79.80;100474.06;5049695;28;20052;-62
2021/07/02 02:19:05;;;;;;;16.80;10.88;;;;;;;15.15;80.20;100472.25;5049302;28;20053;-60
2021/07/02 02:21:32;;;;;;;15.38;10.88;;;;;;;15.14;80.69;100474.06;5044185;28;20356;-61
2021/07/02 02:23:58;;;;;;;17.38;11.35;;;;;;;15.15;80.49;100473.09;5048474;28;20049;-61
2021/07/02 02:26:25;;;;;;;16.15;11.27;;;;;;;15.17;80.16;100470.34;5053253;28;20040;-61
2021/07/02 02:28:52;;;;;;;15.43;10.75;;;;;;;15.18;80.11;100474.72;5041327;28;20059;-61
2021/07/02 02:31:18;;;;;;;16.40;11.60;;;;;;;15.20;79.60;100475.47;5052163;28;20069;-61
2021/07/02 02:33:45;;;;;;;17.25;11.43;;;;;;;15.19;79.49;100479.97;5048896;28;20051;-60
2021/07/02 02:36:11;;;;;;;15.77;10.93;;;;;;;15.19;79.78;100479.09;5051969;28;20051;-60
2021/07/02 02:38:38;;;;;;;18.55;10.82;;;;;;;15.18;79.85;100480.06;5047137;28;20056;-62
2021/07/02 02:41:05;;;;;;;17.00;10.82;;;;;;;15.19;79.92;100487.09;5048931;28;20123;-62
2021/07/02 02:43:31;;;;;;;15.35;10.10;;;;;;;15.18;79.78;100483.56;5050266;28;22231;-61
2021/07/02 02:45:58;;;;;;;15.88;10.73;;;;;;;15.17;79.87;100484.53;5055124;28;20040;-60
2021/07/02 02:48:24;;;;;;;13.38;10.32;;;;;;;15.17;80.01;100486.34;5049499;28;20056;-60
2021/07/02 02:50:51;;;;;;;17.40;10.13;;;;;;;15.19;80.15;100482.63;5045118;28;20044;-61
2021/07/02 02:53:17;;;;;;;15.93;11.15;;;;;;;15.21;80.18;100479.88;5048048;28;20059;-62
2021/07/02 02:55:44;;;;;;;20.00;10.73;;;;;;;15.21;80.04;100485.19;5047064;28;20059;-59
2021/07/02 02:58:10;;;;;;;16.05;11.40;;;;;;;15.22;79.87;100481.56;5051980;28;20048;-61
2021/07/02 03:00:37;;;;;;;17.45;11.10;;;;;;;15.23;79.64;100483.28;5052552;28;20533;-60
2021/07/02 03:03:04;;;;;;;14.43;10.73;;;;;;;15.21;79.30;100486.06;5042930;28;20136;-60
2021/07/02 03:05:31;;;;;;;16.23;10.50;;;;;;;15.18;79.75;100488.91;5044657;28;20072;-63
2021/07/02 03:07:59;;;;;;;15.77;10.38;;;;;;;15.20;80.11;100492.34;5048429;28;20417;-61
2021/07/02 03:10:27;;;;;;;15.52;10.75;;;;;;;15.21;79.65;100485.19;5042382;28;20548;-59
2021/07/02 03:12:53;;;;;;;17.23;11.10;;;;;;;15.19;79.54;100481.75;5052173;28;20428;-61
2021/07/02 03:15:20;;;;;;;15.00;10.30;;;;;;;15.17;80.00;100481.00;5044826;28;20071;-61
2021/07/02 03:17:46;;;;;;;16.20;10.77;;;;;;;15.16;79.87;100481.97;5059980;28;20431;-61
2021/07/02 03:20:13;;;;;;;16.85;10.98;;;;;;;15.16;79.92;100488.16;5053176;28;20055;-59
2021/07/02 03:22:41;;;;;;;13.65;9.98;;;;;;;15.15;80.08;100485.56;5058204;28;20040;-59
2021/07/02 03:25:09;;;;;;;15.55;10.75;;;;;;;15.16;80.11;100489.97;5056038;28;20052;-59
2021/07/02 03:27:36;;;;;;;17.50;10.10;;;;;;;15.16;79.97;100484.63;5062205;28;20049;-58
2021/07/02 03:30:05;;;;;;;15.75;10.65;;;;;;;15.16;79.71;100488.16;5058283;28;20059;-60
2021/07/02 03:32:32;;;;;;;18.88;11.20;;;;;;;15.14;79.66;100489.19;5057053;28;20049;-58
2021/07/02 03:34:59;;;;;;;18.55;11.30;;;;;;;15.12;80.00;100493.78;5060463;28;20044;-59
2021/07/02 03:37:26;;;;;;;16.63;11.30;;;;;;;15.09;80.27;100493.03;5064667;28;20781;-59
2021/07/02 03:39:53;;;;;;;15.45;11.15;;;;;;;15.08;80.56;100490.47;5041065;28;20057;-61
2021/07/02 03:42:19;;;;;;;16.35;11.00;;;;;;;15.10;81.00;100493.91;5060934;28;20055;-61
2021/07/02 03:44:45;;;;;;;17.35;11.23;;;;;;;15.11;80.96;100492.09;5055426;28;20049;-62
2021/07/02 03:47:12;;;;;;;14.52;10.93;;;;;;;15.12;81.19;100493.78;5047110;28;20449;-59
2021/07/02 03:49:39;;;;;;;14.95;10.40;;;;;;;15.13;81.30;100492.81;5049737;28;20044;-59
2021/07/02 03:52:05;;;;;;;16.27;9.93;;;;;;;15.16;81.37;100498.81;5031983;28;20536;-61
2021/07/02 03:54:32;;;;;;;18.85;11.05;;;;;;;15.18;81.60;100504.06;5043681;28;20051;-59
2021/07/02 03:57:11;;;;;;;17.08;11.02;;;;;;;15.20;81.44;100502.16;5039571;28;20045;-60
2021/07/02 03:59:49;;;;;;;16.23;10.82;;;;;;;15.22;81.24;100497.59;5041191;28;20048;-60
2021/07/02 04:02:17;;;;;;;13.85;10.43;;;;;;;15.23;81.22;100497.47;5041386;28;20049;-61
2021/07/02 04:04:44;;;;;;;14.07;10.68;;;;;;;15.27;81.06;100492.78;5043838;28;20539;-61
2021/07/02 04:07:12;;;;;;;15.63;11.38;;;;;;;15.28;81.02;100489.16;5029380;28;20056;-59
2021/07/02 04:09:39;;;;;;;15.07;11.20;;;;;;;15.32;81.00;100496.03;5030307;28;20508;-60
2021/07/02 04:12:07;;;;;;;15.80;11.65;;;;;;;15.33;80.95;100498.59;5038321;28;20053;-60
2021/07/02 04:14:34;;;;;;;16.55;11.02;;;;;;;15.30;80.45;100500.59;5037588;28;20053;-61
2021/07/02 04:17:00;;;;;;;18.33;11.60;;;;;;;15.31;80.78;100504.97;5041204;28;20056;-60
2021/07/02 04:19:27;;;;;;;15.57;10.95;;;;;;;15.38;81.46;100500.97;5042199;28;20504;-60
2021/07/02 04:21:53;;;;;;;15.38;11.50;;;;;;;15.43;80.29;100498.84;5039281;28;20068;-60
2021/07/02 04:24:20;;;;;;;16.13;10.90;;;;;;;15.44;80.29;100505.88;5041954;28;20045;-61
2021/07/02 04:27:06;;;;;;;17.92;11.65;;;;;;;15.47;80.59;100511.03;5035428;28;20051;-61
2021/07/02 04:29:33;;;;;;;16.80;11.20;;;;;;;15.52;80.85;100503.59;5033691;28;20503;-60
2021/07/02 04:32:00;;;;;;;15.05;10.68;;;;;;;15.59;80.86;100514.72;5038833;28;20053;-62
2021/07/02 04:34:26;;;;;;;14.80;10.00;;;;;;;15.63;80.85;100514.44;5039955;28;20427;-60
2021/07/02 04:36:53;;;;;;;15.82;11.30;;;;;;;15.68;80.30;100507.00;5044919;28;20053;-61
2021/07/02 04:39:21;;;;;;;17.25;11.20;;;;;;;15.73;79.95;100517.38;5033766;28;20046;-62
2021/07/02 04:41:48;;;;;;;14.68;11.10;;;;;;;15.73;79.13;100512.91;5041159;28;20059;-60
2021/07/02 04:44:15;;;;;;;17.95;11.75;;;;;;;15.78;79.07;100513.41;5035523;28;20099;-61
2021/07/02 04:46:42;;;;;;;17.13;11.95;;;;;;;15.81;78.60;100511.50;5036254;28;20045;-61
2021/07/02 04:49:08;;;;;;;20.05;11.48;;;;;;;15.81;79.05;100516.84;5040588;28;20061;-62
2021/07/02 04:51:35;;;;;;;15.73;9.90;;;;;;;15.82;79.32;100523.91;5036275;28;20052;-60
2021/07/02 04:54:02;;;;;;;16.10;11.15;;;;;;;15.78;79.69;100509.91;5044448;28;20049;-60
2021/07/02 04:56:28;;;;;;;17.25;11.38;;;;;;;15.80;79.41;100516.00;5034752;28;20087;-61
2021/07/02 04:58:55;;;;;;;17.48;11.18;;;;;;;15.79;79.52;100515.13;5037750;28;20056;-61
2021/07/02 05:01:22;;;;;;;16.45;10.82;;;;;;;15.82;79.52;100514.09;5043346;28;20052;-60
2021/07/02 05:03:50;;;;;;;16.08;11.13;;;;;;;15.89;79.69;100522.56;5041040;28;20045;-60
2021/07/02 05:06:17;;;;;;;20.15;11.35;;;;;;;15.93;79.38;100516.03;5041603;28;20049;-61
2021/07/02 05:08:44;;;;;;;16.00;11.27;;;;;;;15.98;78.89;100524.59;5037850;28;20143;-62
2021/07/02 05:11:11;;;;;;;17.20;11.57;;;;;;;16.00;78.90;100530.69;5042209;28;20049;-60
2021/07/02 05:13:39;;;;;;;17.20;11.93;;;;;;;16.02;78.69;100526.97;5034514;28;20071;-59
2021/07/02 05:16:06;;;;;;;15.70;11.13;;;;;;;16.05;78.56;100529.44;5042013;28;20049;-60
2021/07/02 05:18:33;;;;;;;18.35;10.68;;;;;;;16.07;78.59;100526.63;5043943;28;20099;-59
2021/07/02 05:20:59;;;;;;;17.35;10.25;;;;;;;16.08;77.23;100531.00;5040624;28;20052;-61
2021/07/02 05:23:26;;;;;;;14.63;9.60;;;;;;;16.08;75.77;100526.53;5036088;28;20691;-59
2021/07/02 05:25:52;;;;;;;17.58;10.82;;;;;;;16.12;76.25;100521.84;5044509;28;20045;-61
2021/07/02 05:28:19;;;;;;;16.67;10.45;;;;;;;16.19;76.21;100522.28;5022214;28;20520;-61
2021/07/02 05:30:45;;;;;;;12.52;9.10;;;;;;;16.24;76.05;100529.00;5039955;28;20052;-61
2021/07/02 05:33:12;;;;;;;16.25;10.32;;;;;;;16.32;76.48;100524.00;5039559;28;20049;-59
2021/07/02 05:35:39;;;;;;;14.35;9.48;;;;;;;16.41;76.05;100530.53;5036504;28;20053;-60
2021/07/02 05:38:05;;;;;;;13.85;9.65;;;;;;;16.51;75.79;100534.31;5039829;28;20044;-60
2021/07/02 05:40:32;;;;;;;14.85;9.55;;;;;;;16.65;76.20;100530.69;5031910;28;20059;-58
2021/07/02 05:42:58;;;;;;;16.10;9.85;;;;;;;16.78;75.04;100528.88;5042240;28;20049;-59
2021/07/02 05:45:25;;;;;;;15.40;10.05;;;;;;;16.93;74.99;100525.09;5039648;28;20052;-59
2021/07/02 05:47:58;;;;;;;15.68;9.93;;;;;;;17.06;73.69;100531.28;5036853;28;20049;-59
2021/07/02 05:50:25;;;;;;;16.58;9.85;;;;;;;17.15;73.66;100533.31;5034328;28;20049;-60
2021/07/02 05:52:57;;;;;;;17.85;10.52;;;;;;;17.17;72.52;100534.03;5036519;28;20055;-58
2021/07/02 05:55:24;;;;;;;15.10;10.35;;;;;;;17.16;73.09;100529.66;5040236;28;20841;-58
2021/07/02 05:57:52;;;;;;;15.23;9.13;;;;;;;17.14;72.60;100533.44;5038916;28;20057;-59
2021/07/02 06:00:19;;;;;;;15.50;9.52;;;;;;;17.15;71.97;100537.81;5035682;28;20052;-60
2021/07/02 06:02:46;;;;;;;14.38;8.68;;;;;;;17.16;70.92;100537.66;5052572;28;20461;-59
2021/07/02 06:05:12;;;;;;;14.95;9.00;;;;;;;17.25;70.92;100546.03;5033460;28;20157;-60
2021/07/02 06:07:52;;;;;;;12.90;8.40;;;;;;;17.35;70.59;100547.06;5037947;28;20048;-59
2021/07/02 06:10:20;;;;;;;15.80;10.10;;;;;;;17.49;68.98;100538.88;5037531;28;20059;-61
2021/07/02 06:12:47;;;;;;;13.05;8.38;;;;;;;17.68;69.57;100544.63;5034757;28;20041;-58
2021/07/02 06:15:16;;;;;;;14.95;8.80;;;;;;;17.93;68.28;100542.81;5039595;28;20630;-61
2021/07/02 06:17:44;;;;;;;13.25;8.48;;;;;;;18.27;69.26;100546.44;5035447;28;20060;-61
2021/07/02 06:20:12;;;;;;;14.70;9.40;;;;;;;18.64;66.65;100541.81;5033886;28;20049;-59
2021/07/02 06:22:40;;;;;;;18.75;9.38;;;;;;;19.00;64.58;100546.97;5038142;28;20053;-60
2021/07/02 06:25:10;;;;;;;15.48;9.23;;;;;;;19.15;64.12;100543.06;5034841;28;20064;-60
2021/07/02 06:27:37;;;;;;;14.38;9.38;;;;;;;19.40;63.63;100558.03;5041091;28;20056;-60
2021/07/02 06:30:05;;;;;;;13.20;8.70;;;;;;;19.62;62.70;100549.13;5037889;28;20047;-60
2021/07/02 06:32:32;;;;;;;15.48;9.25;;;;;;;19.72;61.77;100550.06;5034571;28;20053;-60
2021/07/02 06:34:58;;;;;;;12.70;8.68;;;;;;;19.60;61.69;100551.06;5035663;28;20699;-61
2021/07/02 06:37:25;;;;;;;15.10;9.35;;;;;;;19.49;62.90;100551.06;5037391;28;20060;-59
2021/07/02 06:39:56;;;;;;;11.10;8.38;;;;;;;19.70;64.01;100554.69;5041560;28;20060;-60
2021/07/02 06:42:22;;;;;;;13.60;9.38;;;;;;;19.92;61.78;100551.09;5036322;28;20053;-61
2021/07/02 06:44:49;;;;;;;11.38;7.82;;;;;;;19.88;61.65;100550.50;5033955;28;20375;-60
2021/07/02 06:47:15;;;;;;;14.27;9.32;;;;;;;19.87;63.02;100554.16;5043505;28;20048;-61
2021/07/02 06:49:42;;;;;;;14.35;8.70;;;;;;;19.92;61.51;100556.47;5037282;28;20044;-61
2021/07/02 06:52:08;;;;;;;14.80;8.75;;;;;;;19.85;62.29;100558.81;5037340;28;20052;-60
2021/07/02 06:54:35;;;;;;;11.93;8.77;;;;;;;19.71;61.80;100556.41;5036338;28;20041;-59
2021/07/02 06:57:03;;;;;;;10.50;8.63;;;;;;;19.53;62.84;100558.75;5041177;28;20059;-61
2021/07/02 06:59:32;;;;;;;14.48;8.70;;;;;;;19.28;62.14;100567.94;5037055;28;20057;-61
2021/07/02 07:02:00;;;;;;;13.82;9.13;;;;;;;19.09;63.29;100570.38;5037999;28;20045;-60
2021/07/02 07:04:33;;;;;;;14.15;9.10;;;;;;;19.03;64.14;100562.84;5047515;28;20041;-61
2021/07/02 07:07:07;;;;;;;13.48;8.68;;;;;;;19.04;63.92;100569.91;5015286;28;20064;-60
2021/07/02 07:09:35;;;;;;;13.77;9.55;;;;;;;19.15;63.78;100563.69;5025882;28;20136;-61
2021/07/02 07:12:02;;;;;;;12.27;9.52;;;;;;;19.47;62.00;100571.81;5034750;28;20060;-61
2021/07/02 07:14:29;;;;;;;12.75;9.27;;;;;;;19.59;62.56;100566.34;5044140;28;20100;-61
2021/07/02 07:16:55;;;;;;;12.90;8.18;;;;;;;19.85;63.58;100571.38;5054610;28;20156;-62
2021/07/02 07:19:27;;;;;;;13.13;8.70;;;;;;;20.22;61.72;100571.88;5047549;28;20552;-60
2021/07/02 07:21:55;;;;;;;13.43;8.90;;;;;;;20.72;60.51;100567.59;5045217;28;20067;-59
2021/07/02 07:24:21;;;;;;;15.20;8.85;;;;;;;21.11;57.94;100567.75;5043632;28;20568;-59
2021/07/02 07:26:53;;;;;;;13.48;8.73;;;;;;;21.30;58.70;100567.88;5041355;28;20075;-61
2021/07/02 07:29:19;;;;;;;14.45;8.68;;;;;;;21.32;57.09;100566.75;5040812;28;20057;-61
2021/07/02 07:31:46;;;;;;;15.23;8.45;;;;;;;21.42;57.02;100565.91;5044491;28;20068;-59
2021/07/02 07:34:21;;;;;;;12.98;8.18;;;;;;;21.62;55.25;100560.44;5046480;28;20049;-62
2021/07/02 07:36:54;;;;;;;15.13;9.32;;;;;;;21.54;54.55;100562.16;5060737;28;20060;-61
2021/07/02 07:39:22;;;;;;;12.32;8.57;;;;;;;21.58;55.82;100569.78;5046874;28;20048;-61
2021/07/02 07:41:48;;;;;;;14.43;8.77;;;;;;;21.65;55.85;100565.56;5051428;28;20177;-62
2021/07/02 07:44:15;;;;;;;10.75;8.55;;;;;;;21.79;54.97;100572.41;5027495;28;20059;-61
2021/07/02 07:46:42;;;;;;;12.52;8.57;;;;;;;21.90;54.40;100574.09;5045575;28;20052;-61
2021/07/02 07:49:09;;;;;;;12.50;8.77;;;;;;;22.00;53.19;100577.72;5039210;28;20045;-62
2021/07/02 07:51:49;;;;;;;12.43;8.60;;;;;;;22.01;52.65;100577.56;5032079;28;20065;-62
2021/07/02 07:54:15;;;;;;;15.90;8.32;;;;;;;21.97;51.14;100576.13;5032178;28;20079;-61
2021/07/02 07:56:50;;;;;;;11.55;8.32;;;;;;;21.91;50.80;100573.97;5047420;28;20136;-60
2021/07/02 07:59:22;;;;;;;13.07;8.10;;;;;;;22.20;51.97;100574.00;5039392;28;20102;-60
2021/07/02 08:01:49;;;;;;;12.30;8.43;;;;;;;22.22;51.83;100576.56;5036129;28;20586;-59
2021/07/02 08:04:15;;;;;;;12.18;8.65;;;;;;;21.94;52.00;100576.38;5044593;28;20040;-61
2021/07/02 08:06:42;;;;;;;12.77;8.40;;;;;;;21.47;53.42;100578.00;5054474;28;20054;-60
2021/07/02 08:09:10;;;;;;;14.25;8.70;;;;;;;21.48;54.50;100579.72;5049464;28;20044;-60
2021/07/02 08:11:38;;;;;;;14.85;8.10;;;;;;;21.62;53.39;100576.63;5038577;28;20057;-61
2021/07/02 08:14:05;;;;;;;9.57;7.57;;;;;;;21.68;53.82;100575.22;5050193;28;20040;-61
2021/07/02 08:16:31;;;;;;;16.63;8.90;;;;;;;21.84;53.76;100580.94;5022095;28;20053;-58
2021/07/02 08:18:58;;;;;;;10.50;7.80;;;;;;;22.11;53.16;100590.19;5026828;28;20057;-62
2021/07/02 08:21:25;;;;;;;13.55;8.43;;;;;;;22.30;51.22;100580.28;5024152;28;20057;-61
2021/07/02 08:23:52;;;;;;;13.43;7.63;;;;;;;22.19;49.48;100590.38;5041492;28;20057;-59
2021/07/02 08:26:19;;;;;;;11.38;7.50;;;;;;;21.91;50.94;100579.34;5048015;28;20056;-62
2021/07/02 08:31:32;;;;;;;11.90;8.10;;;;;;;21.85;49.88;100589.88;5045133;28;20431;-60
2021/07/02 08:33:59;;;;;;;9.73;7.65;;;;;;;21.86;49.94;100584.34;5045068;28;20076;-60
2021/07/02 08:36:26;;;;;;;8.98;6.63;;;;;;;21.97;50.49;100578.81;5051524;28;20068;-60
2021/07/02 08:38:52;;;;;;;12.57;8.02;;;;;;;22.07;49.86;100578.84;5045890;28;20056;-55
2021/07/02 08:41:19;;;;;;;9.98;7.10;;;;;;;22.20;50.28;100573.16;5047205;28;20057;-57
2021/07/02 08:43:47;;;;;;;9.32;6.50;;;;;;;22.25;49.04;100568.19;5048538;28;20381;-60
2021/07/02 08:46:20;;;;;;;9.10;6.70;;;;;;;22.49;48.29;100579.41;5044135;28;20631;-57
2021/07/02 08:48:50;;;;;;;12.43;6.50;;;;;;;22.42;46.06;100574.72;5047715;28;20085;-58
2021/07/02 08:51:23;;;;;;;10.95;6.05;;;;;;;22.34;46.17;100570.91;5045104;28;20044;-60
2021/07/02 08:53:55;;;;;;;6.78;5.88;;;;;;;22.40;45.56;100582.94;5042518;28;20103;-59
2021/07/02 08:56:22;;;;;;;8.73;5.93;;;;;;;22.56;44.40;100575.13;5039564;28;20218;-57
2021/07/02 08:58:48;;;;;;;7.80;6.28;;;;;;;22.66;44.87;100578.69;5040997;28;20057;-56
2021/07/02 09:01:38;;;;;;;9.65;6.43;;;;;;;22.37;45.60;100583.22;5040776;28;20419;-61
2021/07/02 09:04:25;;;;;;;8.40;6.07;;;;;;;22.08;46.39;100582.38;5039326;28;20051;-58
2021/07/02 09:07:02;;;;;;;7.10;6.30;;;;;;;21.87;47.14;100590.59;5040626;28;20052;-58
2021/07/02 09:09:59;;;;;;;9.13;6.28;;;;;;;21.68;47.79;100588.69;5047867;28;20045;-58
2021/07/02 09:12:30;;;;;;;10.07;6.50;;;;;;;21.82;47.53;100587.44;5038276;28;20668;-57
2021/07/02 09:15:06;;;;;;;10.55;6.05;;;;;;;21.99;45.56;100589.47;5049007;28;20538;-60
2021/07/02 09:17:38;;;;;;;9.10;6.40;;;;;;;22.03;44.90;100582.84;5058643;28;20083;-60
2021/07/02 09:20:24;;;;;;;9.88;6.40;;;;;;;22.07;45.71;100586.94;5062978;28;20520;-64
2021/07/02 09:22:54;;;;;;;11.60;6.47;;;;;;;22.28;45.51;100586.81;5052807;28;20045;-60
2021/07/02 09:25:28;;;;;;;8.77;6.68;;;;;;;22.13;44.83;100589.06;5057031;28;20057;-59
2021/07/02 09:28:20;;;;;;;9.38;6.00;;;;;;;21.94;45.19;100581.78;5054947;28;20415;-61
2021/07/02 09:30:49;;;;;;;10.03;6.03;;;;;;;22.01;46.51;100584.81;5054985;28;20926;-61
2021/07/02 09:33:18;;;;;;;9.02;6.88;;;;;;;22.18;45.85;100589.50;5044250;28;20463;-58
2021/07/02 09:35:47;;;;;;;9.15;6.10;;;;;;;22.37;45.48;100585.94;5050156;28;20061;-59
2021/07/02 09:38:18;;;;;;;8.40;6.43;;;;;;;22.36;44.44;100579.69;5045641;28;20045;-58
2021/07/02 09:40:46;;;;;;;6.80;5.97;;;;;;;22.29;44.86;100583.13;5051134;28;20127;-58
2021/07/02 09:43:16;;;;;;;6.93;5.90;;;;;;;22.31;45.29;100597.31;5045557;28;20049;-60
2021/07/02 09:45:57;;;;;;;8.40;5.88;;;;;;;22.20;44.78;100583.94;5050192;28;20040;-60
2021/07/02 09:48:25;;;;;;;9.02;5.93;;;;;;;21.85;45.12;100584.47;5051411;28;20488;-60
2021/07/02 09:50:56;;;;;;;7.78;5.72;;;;;;;21.63;45.59;100581.03;5053860;28;20053;-56
2021/07/02 09:53:30;;;;;;;9.18;6.15;;;;;;;21.57;46.85;100586.94;5049500;28;20152;-59
2021/07/02 09:55:59;;;;;;;7.75;5.95;;;;;;;21.55;47.33;100585.41;5045131;28;20319;-59
2021/07/02 09:58:28;;;;;;;8.57;5.88;;;;;;;21.56;47.17;100589.81;5046863;28;20049;-59
2021/07/02 10:00:56;;;;;;;9.85;6.65;;;;;;;21.58;45.91;100587.81;5034356;28;20047;-58
2021/07/02 10:03:27;;;;;;;7.03;5.40;;;;;;;21.66;45.15;100596.06;5031217;28;20076;-58
2021/07/02 10:06:07;;;;;;;6.25;5.35;;;;;;;21.84;46.03;100596.25;5041950;28;20115;-59
2021/07/02 10:08:34;;;;;;;;;;;;;;;21.98;45.05;100590.44;5051272;28;20618;-60
2021/07/02 10:11:04;;;;;;;7.20;6.10;;;;;;;22.13;43.98;100590.91;5049179;28;19936;-59
2021/07/02 10:13:32;;;;;;;7.63;5.88;;;;;;;22.25;43.72;100595.16;5043698;28;20066;-60
2021/07/02 10:16:01;;;;;;;7.15;5.32;;;;;;;22.37;45.17;100589.47;5043336;28;20099;-61
2021/07/02 10:18:29;;;;;;;7.60;5.45;;;;;;;22.44;44.66;100587.06;5056760;28;20049;-59
2021/07/02 10:20:59;;;;;;;7.43;5.75;;;;;;;22.49;45.09;100598.31;5046676;28;20642;-57
2021/07/02 10:23:31;;;;;;;7.80;5.75;;;;;;;22.55;44.13;100600.41;5050112;28;20076;-59
2021/07/02 10:25:59;;;;;;;10.50;6.10;;;;;;;22.57;43.80;100595.72;5045603;28;20505;-58
2021/07/02 10:28:27;;;;;;;7.10;5.97;;;;;;;22.61;44.51;100599.00;5040514;28;20088;-59
2021/07/02 10:30:54;;;;;;;9.50;6.05;;;;;;;22.67;44.77;100599.25;5041892;28;20156;-59
2021/07/02 10:33:23;;;;;;;7.45;5.88;;;;;;;22.83;44.46;100600.53;5051815;28;20459;-57
2021/07/02 10:36:12;;;;;;;7.30;5.88;;;;;;;22.81;43.72;100606.09;5045826;28;20147;-60
2021/07/02 10:38:45;;;;;;;9.63;6.18;;;;;;;22.77;43.96;100606.53;5058710;28;21265;-60
2021/07/02 10:41:14;;;;;;;9.30;6.18;;;;;;;22.77;43.02;100601.13;5050010;28;20504;-60
2021/07/02 10:44:08;;;;;;;9.20;6.30;;;;;;;22.61;44.34;100599.84;5049569;28;20685;-59
2021/07/02 10:46:58;;;;;;;8.30;5.85;;;;;;;22.44;45.22;100589.78;5045388;28;20080;-61
2021/07/02 10:49:38;;;;;;;7.90;5.63;;;;;;;22.44;45.14;100597.88;5047147;28;20048;-61
2021/07/02 10:52:22;;;;;;;6.45;5.70;;;;;;;22.59;44.21;100601.84;5048213;28;20594;-60
2021/07/02 10:54:50;;;;;;;9.23;5.72;;;;;;;22.78;43.89;100594.72;5042889;28;20119;-60
2021/07/02 10:57:19;;;;;;;8.10;5.40;;;;;;;22.88;44.07;100591.00;5052059;28;20520;-62
2021/07/02 10:59:48;;;;;;;7.22;5.47;;;;;;;23.00;44.15;100583.56;5045333;28;20051;-62
2021/07/02 11:02:23;;;;;;;7.93;6.20;;;;;;;22.93;42.94;100590.56;5048287;28;20064;-60
2021/07/02 11:04:50;;;;;;;8.13;5.82;;;;;;;22.86;42.34;100592.13;5048954;28;20045;-61
2021/07/02 11:07:19;;;;;;;7.97;5.85;;;;;;;22.80;42.78;100584.66;5054607;28;20044;-60
2021/07/02 11:12:24;;;;;;;9.27;5.93;;;;;;;22.95;42.64;100584.03;5070610;28;20518;-61
2021/07/02 11:14:53;;;;;;;7.70;5.90;;;;;;;23.06;42.48;100585.69;5058638;28;20053;-62
2021/07/02 11:17:30;;;;;;;6.97;5.80;;;;;;;23.20;41.99;100579.81;5026331;28;20501;-59
2021/07/02 11:20:17;;;;;;;6.93;5.82;;;;;;;23.33;42.67;100583.00;5030526;28;20677;-61
2021/07/02 11:22:46;;;;;;;7.78;5.85;;;;;;;23.54;42.72;100581.97;5068173;28;20690;-61
2021/07/02 11:25:44;;;;;;;7.57;5.63;;;;;;;23.74;41.56;100576.28;5066250;28;20048;-60
2021/07/02 11:28:18;;;;;;;8.18;5.80;;;;;;;23.91;41.33;100571.06;5058373;28;20072;-60
2021/07/02 11:30:46;;;;;;;6.80;5.80;;;;;;;24.04;41.66;100580.50;5066131;28;20049;-61